sensor_id;sensor_type;location;lat;lon;timestamp;pressure;altitude;pressure_sealevel;temperature;humidity
76448;BME280;65284;51.040;13.722;2024-02-21T00:02:13;100539.31;;;7.49;86.48
76448;BME280;65284;51.040;13.722;2024-02-21T00:04:39;100534.00;;;7.49;86.52
76448;BME280;65284;51.040;13.722;2024-02-21T00:07:06;100523.69;;;7.46;86.30
76448;BME280;65284;51.040;13.722;2024-02-21T00:09:33;100516.81;;;7.55;86.24
76448;BME280;65284;51.040;13.722;2024-02-21T00:11:59;100509.25;;;7.50;86.21
76448;BME280;65284;51.040;13.722;2024-02-21T00:14:27;100518.53;;;7.44;86.88
76448;BME280;65284;51.040;13.722;2024-02-21T00:16:54;100508.09;;;7.43;86.75
76448;BME280;65284;51.040;13.722;2024-02-21T00:19:20;100502.81;;;7.43;86.39
76448;BME280;65284;51.040;13.722;2024-02-21T00:21:47;100499.25;;;7.53;86.08
76448;BME280;65284;51.040;13.722;2024-02-21T00:24:13;100498.41;;;7.53;85.64
76448;BME280;65284;51.040;13.722;2024-02-21T00:26:40;100501.53;;;7.58;85.96
76448;BME280;65284;51.040;13.722;2024-02-21T00:29:06;100500.81;;;7.56;86.18
76448;BME280;65284;51.040;13.722;2024-02-21T00:31:34;100498.41;;;7.53;86.28
76448;BME280;65284;51.040;13.722;2024-02-21T00:34:02;100489.78;;;7.51;86.36
76448;BME280;65284;51.040;13.722;2024-02-21T00:36:28;100487.59;;;7.56;86.05
76448;BME280;65284;51.040;13.722;2024-02-21T00:38:55;100483.28;;;7.55;85.71
76448;BME280;65284;51.040;13.722;2024-02-21T00:41:21;100483.53;;;7.52;86.05
76448;BME280;65284;51.040;13.722;2024-02-21T00:43:48;100482.19;;;7.58;85.53
76448;BME280;65284;51.040;13.722;2024-02-21T00:46:16;100477.28;;;7.53;85.39
76448;BME280;65284;51.040;13.722;2024-02-21T00:48:43;100482.88;;;7.60;85.34
76448;BME280;65284;51.040;13.722;2024-02-21T00:51:09;100491.47;;;7.52;86.36
76448;BME280;65284;51.040;13.722;2024-02-21T00:53:35;100484.50;;;7.51;85.94
76448;BME280;65284;51.040;13.722;2024-02-21T00:56:05;100477.28;;;7.53;85.63
76448;BME280;65284;51.040;13.722;2024-02-21T00:58:32;100476.72;;;7.49;85.56
76448;BME280;65284;51.040;13.722;2024-02-21T01:01:00;100475.63;;;7.52;85.63
76448;BME280;65284;51.040;13.722;2024-02-21T01:03:27;100461.41;;;7.53;86.08
76448;BME280;65284;51.040;13.722;2024-02-21T01:05:53;100465.03;;;7.52;85.41
76448;BME280;65284;51.040;13.722;2024-02-21T01:08:20;100466.69;;;7.53;85.40
76448;BME280;65284;51.040;13.722;2024-02-21T01:10:46;100466.44;;;7.56;85.01
76448;BME280;65284;51.040;13.722;2024-02-21T01:13:13;100457.31;;;7.60;84.83
76448;BME280;65284;51.040;13.722;2024-02-21T01:15:39;100446.00;;;7.58;84.84
76448;BME280;65284;51.040;13.722;2024-02-21T01:18:05;100449.19;;;7.52;85.37
76448;BME280;65284;51.040;13.722;2024-02-21T01:20:32;100442.53;;;7.58;84.88
76448;BME280;65284;51.040;13.722;2024-02-21T01:22:59;100445.88;;;7.60;84.35
76448;BME280;65284;51.040;13.722;2024-02-21T01:25:25;100438.09;;;7.58;84.79
76448;BME280;65284;51.040;13.722;2024-02-21T01:27:52;100436.38;;;7.57;84.77
76448;BME280;65284;51.040;13.722;2024-02-21T01:30:18;100428.88;;;7.52;85.16
76448;BME280;65284;51.040;13.722;2024-02-21T01:32:45;100433.91;;;7.56;85.06
76448;BME280;65284;51.040;13.722;2024-02-21T01:35:11;100423.31;;;7.56;84.77
76448;BME280;65284;51.040;13.722;2024-02-21T01:37:38;100425.41;;;7.52;85.32
76448;BME280;65284;51.040;13.722;2024-02-21T01:40:05;100423.19;;;7.57;85.23
76448;BME280;65284;51.040;13.722;2024-02-21T01:42:31;100407.31;;;7.57;84.72
76448;BME280;65284;51.040;13.722;2024-02-21T01:44:58;100403.28;;;7.53;85.10
76448;BME280;65284;51.040;13.722;2024-02-21T01:47:24;100394.63;;;7.51;85.22
76448;BME280;65284;51.040;13.722;2024-02-21T01:49:51;100386.00;;;7.49;85.24
76448;BME280;65284;51.040;13.722;2024-02-21T01:52:18;100389.59;;;7.48;85.41
76448;BME280;65284;51.040;13.722;2024-02-21T01:54:46;100385.31;;;7.47;85.26
76448;BME280;65284;51.040;13.722;2024-02-21T01:57:13;100382.41;;;7.50;85.95
76448;BME280;65284;51.040;13.722;2024-02-21T01:59:39;100376.84;;;7.53;85.71
76448;BME280;65284;51.040;13.722;2024-02-21T02:02:06;100379.31;;;7.45;85.72
76448;BME280;65284;51.040;13.722;2024-02-21T02:04:33;100378.47;;;7.44;85.39
76448;BME280;65284;51.040;13.722;2024-02-21T02:07:02;100384.59;;;7.45;86.05
76448;BME280;65284;51.040;13.722;2024-02-21T02:09:30;100368.72;;;7.45;85.70
76448;BME280;65284;51.040;13.722;2024-02-21T02:11:56;100365.66;;;7.40;85.98
76448;BME280;65284;51.040;13.722;2024-02-21T02:14:25;100369.25;;;7.39;86.03
76448;BME280;65284;51.040;13.722;2024-02-21T02:16:51;100369.53;;;7.36;86.06
76448;BME280;65284;51.040;13.722;2024-02-21T02:19:18;100369.53;;;7.36;86.11
76448;BME280;65284;51.040;13.722;2024-02-21T02:21:49;100368.13;;;7.32;86.66
76448;BME280;65284;51.040;13.722;2024-02-21T02:24:20;100364.50;;;7.33;86.38
76448;BME280;65284;51.040;13.722;2024-02-21T02:26:47;100365.94;;;7.37;86.46
76448;BME280;65284;51.040;13.722;2024-02-21T02:29:13;100364.69;;;7.41;86.07
76448;BME280;65284;51.040;13.722;2024-02-21T02:31:40;100356.50;;;7.44;85.55
76448;BME280;65284;51.040;13.722;2024-02-21T02:34:06;100359.13;;;7.44;85.51
76448;BME280;65284;51.040;13.722;2024-02-21T02:36:33;100357.75;;;7.40;85.72
76448;BME280;65284;51.040;13.722;2024-02-21T02:39:00;100360.69;;;7.46;85.46
76448;BME280;65284;51.040;13.722;2024-02-21T02:41:26;100362.66;;;7.54;85.58
76448;BME280;65284;51.040;13.722;2024-02-21T02:43:53;100361.97;;;7.52;85.22
76448;BME280;65284;51.040;13.722;2024-02-21T02:46:19;100358.34;;;7.53;85.53
76448;BME280;65284;51.040;13.722;2024-02-21T02:48:46;100356.75;;;7.41;85.77
76448;BME280;65284;51.040;13.722;2024-02-21T02:51:12;100354.13;;;7.41;85.76
76448;BME280;65284;51.040;13.722;2024-02-21T02:53:39;100354.13;;;7.41;85.99
76448;BME280;65284;51.040;13.722;2024-02-21T02:56:05;100353.41;;;7.39;85.61
76448;BME280;65284;51.040;13.722;2024-02-21T02:58:32;100340.91;;;7.41;85.91
76448;BME280;65284;51.040;13.722;2024-02-21T03:00:58;100340.06;;;7.40;85.62
76448;BME280;65284;51.040;13.722;2024-02-21T03:03:25;100339.53;;;7.46;85.60
76448;BME280;65284;51.040;13.722;2024-02-21T03:05:51;100342.31;;;7.45;85.92
76448;BME280;65284;51.040;13.722;2024-02-21T03:08:18;100339.50;;;7.37;86.03
76448;BME280;65284;51.040;13.722;2024-02-21T03:10:44;100338.09;;;7.33;86.12
76448;BME280;65284;51.040;13.722;2024-02-21T03:13:13;100326.31;;;7.37;85.97
76448;BME280;65284;51.040;13.722;2024-02-21T03:15:40;100329.22;;;7.34;85.57
76448;BME280;65284;51.040;13.722;2024-02-21T03:18:06;100323.91;;;7.34;85.84
76448;BME280;65284;51.040;13.722;2024-02-21T03:20:33;100326.31;;;7.37;86.20
76448;BME280;65284;51.040;13.722;2024-02-21T03:22:59;100316.41;;;7.39;86.07
76448;BME280;65284;51.040;13.722;2024-02-21T03:25:26;100313.09;;;7.37;85.86
76448;BME280;65284;51.040;13.722;2024-02-21T03:27:53;100323.91;;;7.34;86.46
76448;BME280;65284;51.040;13.722;2024-02-21T03:30:19;100321.97;;;7.36;85.58
76448;BME280;65284;51.040;13.722;2024-02-21T03:32:46;100328.16;;;7.46;85.60
76448;BME280;65284;51.040;13.722;2024-02-21T03:35:12;100330.59;;;7.38;85.46
76448;BME280;65284;51.040;13.722;2024-02-21T03:37:39;100333.38;;;7.36;86.05
76448;BME280;65284;51.040;13.722;2024-02-21T03:40:08;100328.69;;;7.40;85.36
76448;BME280;65284;51.040;13.722;2024-02-21T03:42:34;100327.25;;;7.36;85.49
76448;BME280;65284;51.040;13.722;2024-02-21T03:45:01;100324.75;;;7.34;85.63
76448;BME280;65284;51.040;13.722;2024-02-21T03:47:27;100323.91;;;7.34;85.81
76448;BME280;65284;51.040;13.722;2024-02-21T03:49:54;100316.97;;;7.42;85.20
76448;BME280;65284;51.040;13.722;2024-02-21T03:52:20;100323.91;;;7.34;85.67
76448;BME280;65284;51.040;13.722;2024-02-21T03:54:47;100321.41;;;7.32;85.67
76448;BME280;65284;51.040;13.722;2024-02-21T03:57:13;100318.91;;;7.31;86.08
76448;BME280;65284;51.040;13.722;2024-02-21T03:59:40;100316.13;;;7.32;85.54
76448;BME280;65284;51.040;13.722;2024-02-21T04:02:10;100303.88;;;7.31;86.41
76448;BME280;65284;51.040;13.722;2024-02-21T04:04:36;100298.72;;;7.29;86.12
76448;BME280;65284;51.040;13.722;2024-02-21T04:07:03;100302.19;;;7.30;85.65
76448;BME280;65284;51.040;13.722;2024-02-21T04:09:33;100308.34;;;7.31;86.03
76448;BME280;65284;51.040;13.722;2024-02-21T04:12:00;100304.72;;;7.32;85.91
76448;BME280;65284;51.040;13.722;2024-02-21T04:14:27;100290.25;;;7.36;86.12
76448;BME280;65284;51.040;13.722;2024-02-21T04:16:53;100295.13;;;7.31;86.48
76448;BME280;65284;51.040;13.722;2024-02-21T04:19:20;100297.78;;;7.31;86.04
76448;BME280;65284;51.040;13.722;2024-02-21T04:21:46;100297.50;;;7.34;85.68
76448;BME280;65284;51.040;13.722;2024-02-21T04:24:13;100294.88;;;7.34;85.92
76448;BME280;65284;51.040;13.722;2024-02-21T04:26:39;100303.72;;;7.33;85.78
76448;BME280;65284;51.040;13.722;2024-02-21T04:29:06;100299.44;;;7.32;85.51
76448;BME280;65284;51.040;13.722;2024-02-21T04:31:33;100299.16;;;7.35;86.14
76448;BME280;65284;51.040;13.722;2024-02-21T04:34:00;100292.47;;;7.31;86.03
76448;BME280;65284;51.040;13.722;2024-02-21T04:36:26;100294.69;;;7.25;86.53
76448;BME280;65284;51.040;13.722;2024-02-21T04:38:52;100287.97;;;7.21;86.17
76448;BME280;65284;51.040;13.722;2024-02-21T04:41:19;100291.31;;;7.23;86.52
76448;BME280;65284;51.040;13.722;2024-02-21T04:43:46;100291.31;;;7.23;86.00
76448;BME280;65284;51.040;13.722;2024-02-21T04:46:13;100298.00;;;7.27;86.33
76448;BME280;65284;51.040;13.722;2024-02-21T04:48:40;100299.97;;;7.25;86.13
76448;BME280;65284;51.040;13.722;2024-02-21T04:51:06;100298.53;;;7.21;86.29
76448;BME280;65284;51.040;13.722;2024-02-21T04:53:33;100287.19;;;7.31;85.92
76448;BME280;65284;51.040;13.722;2024-02-21T04:55:59;100294.59;;;7.37;85.27
76448;BME280;65284;51.040;13.722;2024-02-21T04:58:26;100287.19;;;7.31;85.61
76448;BME280;65284;51.040;13.722;2024-02-21T05:00:52;100289.13;;;7.28;85.70
76448;BME280;65284;51.040;13.722;2024-02-21T05:03:21;100288.88;;;7.32;85.45
76448;BME280;65284;51.040;13.722;2024-02-21T05:05:48;100282.16;;;7.27;85.76
76448;BME280;65284;51.040;13.722;2024-02-21T05:08:14;100278.16;;;7.33;85.87
76448;BME280;65284;51.040;13.722;2024-02-21T05:10:41;100278.16;;;7.33;85.65
76448;BME280;65284;51.040;13.722;2024-02-21T05:13:07;100267.72;;;7.32;85.99
76448;BME280;65284;51.040;13.722;2024-02-21T05:15:35;100268.59;;;7.42;85.80
76448;BME280;65284;51.040;13.722;2024-02-21T05:18:01;100264.56;;;7.47;85.69
76448;BME280;65284;51.040;13.722;2024-02-21T05:20:28;100268.84;;;7.39;86.33
76448;BME280;65284;51.040;13.722;2024-02-21T05:22:55;100268.03;;;7.38;87.24
76448;BME280;65284;51.040;13.722;2024-02-21T05:25:21;100268.84;;;7.39;87.33
76448;BME280;65284;51.040;13.722;2024-02-21T05:27:51;100267.47;;;7.44;87.32
76448;BME280;65284;51.040;13.722;2024-02-21T05:30:19;100265.81;;;7.34;88.00
76448;BME280;65284;51.040;13.722;2024-02-21T05:32:46;100274.13;;;7.39;87.57
76448;BME280;65284;51.040;13.722;2024-02-21T05:35:13;100259.97;;;7.40;87.41
76448;BME280;65284;51.040;13.722;2024-02-21T05:37:39;100260.94;;;7.39;86.86
76448;BME280;65284;51.040;13.722;2024-02-21T05:40:06;100257.34;;;7.40;86.77
76448;BME280;65284;51.040;13.722;2024-02-21T05:42:33;100247.72;;;7.39;86.67
76448;BME280;65284;51.040;13.722;2024-02-21T05:44:59;100259.97;;;7.40;87.06
76448;BME280;65284;51.040;13.722;2024-02-21T05:47:26;100246.63;;;7.41;87.05
76448;BME280;65284;51.040;13.722;2024-02-21T05:49:52;100249.41;;;7.40;87.38
76448;BME280;65284;51.040;13.722;2024-02-21T05:52:20;100248.44;;;7.41;87.62
76448;BME280;65284;51.040;13.722;2024-02-21T05:54:47;100252.72;;;7.42;88.50
76448;BME280;65284;51.040;13.722;2024-02-21T05:57:19;100243.00;;;7.42;87.88
76448;BME280;65284;51.040;13.722;2024-02-21T05:59:46;100242.44;;;7.39;88.06
76448;BME280;65284;51.040;13.722;2024-02-21T06:02:12;100240.22;;;7.44;87.96
76448;BME280;65284;51.040;13.722;2024-02-21T06:04:39;100238.84;;;7.40;88.44
76448;BME280;65284;51.040;13.722;2024-02-21T06:07:06;100233.28;;;7.43;88.48
76448;BME280;65284;51.040;13.722;2024-02-21T06:09:32;100215.72;;;7.42;88.68
76448;BME280;65284;51.040;13.722;2024-02-21T06:11:59;100222.16;;;7.49;88.44
76448;BME280;65284;51.040;13.722;2024-02-21T06:14:25;100216.00;;;7.39;88.73
76448;BME280;65284;51.040;13.722;2024-02-21T06:16:52;100207.13;;;7.40;88.79
76448;BME280;65284;51.040;13.722;2024-02-21T06:19:18;100208.22;;;7.37;89.11
76448;BME280;65284;51.040;13.722;2024-02-21T06:21:45;100205.59;;;7.37;89.07
76448;BME280;65284;51.040;13.722;2024-02-21T06:24:11;100196.25;;;7.33;89.88
76448;BME280;65284;51.040;13.722;2024-02-21T06:26:40;100202.78;;;7.39;89.68
76448;BME280;65284;51.040;13.722;2024-02-21T06:29:06;100204.06;;;7.35;89.94
76448;BME280;65284;51.040;13.722;2024-02-21T06:31:33;100198.06;;;7.33;90.00
76448;BME280;65284;51.040;13.722;2024-02-21T06:33:59;100199.88;;;7.32;90.29
76448;BME280;65284;51.040;13.722;2024-02-21T06:36:26;100195.16;;;7.36;90.13
76448;BME280;65284;51.040;13.722;2024-02-21T06:38:52;100188.47;;;7.32;90.24
76448;BME280;65284;51.040;13.722;2024-02-21T06:41:19;100192.66;;;7.34;90.17
76448;BME280;65284;51.040;13.722;2024-02-21T06:43:46;100186.13;;;7.38;90.26
76448;BME280;65284;51.040;13.722;2024-02-21T06:46:24;100190.13;;;7.33;90.52
76448;BME280;65284;51.040;13.722;2024-02-21T06:48:51;100196.66;;;7.28;90.67
76448;BME280;65284;51.040;13.722;2024-02-21T06:51:18;100193.03;;;7.29;90.53
76448;BME280;65284;51.040;13.722;2024-02-21T06:53:44;100192.94;;;7.31;90.49
76448;BME280;65284;51.040;13.722;2024-02-21T06:56:10;100200.69;;;7.33;90.52
76448;BME280;65284;51.040;13.722;2024-02-21T06:58:37;100207.41;;;7.37;90.44
76448;BME280;65284;51.040;13.722;2024-02-21T07:01:04;100209.06;;;7.38;90.62
76448;BME280;65284;51.040;13.722;2024-02-21T07:03:30;100216.00;;;7.39;90.61
76448;BME280;65284;51.040;13.722;2024-02-21T07:05:57;100214.34;;;7.38;90.53
76448;BME280;65284;51.040;13.722;2024-02-21T07:08:24;100207.25;;;7.38;90.55
76448;BME280;65284;51.040;13.722;2024-02-21T07:10:50;100207.41;;;7.37;90.63
76448;BME280;65284;51.040;13.722;2024-02-21T07:13:17;100207.13;;;7.40;90.50
76448;BME280;65284;51.040;13.722;2024-02-21T07:15:44;100209.06;;;7.38;90.49
76448;BME280;65284;51.040;13.722;2024-02-21T07:18:10;100210.72;;;7.39;90.61
76448;BME280;65284;51.040;13.722;2024-02-21T07:20:37;100211.28;;;7.42;89.82
76448;BME280;65284;51.040;13.722;2024-02-21T07:23:03;100216.06;;;7.48;89.96
76448;BME280;65284;51.040;13.722;2024-02-21T07:25:30;100219.09;;;7.53;90.41
76448;BME280;65284;51.040;13.722;2024-02-21T07:27:56;100220.19;;;7.51;90.38
76448;BME280;65284;51.040;13.722;2024-02-21T07:30:23;100219.09;;;7.53;89.90
76448;BME280;65284;51.040;13.722;2024-02-21T07:32:50;100222.44;;;7.56;89.77
76448;BME280;65284;51.040;13.722;2024-02-21T07:35:17;100223.84;;;7.60;89.41
76448;BME280;65284;51.040;13.722;2024-02-21T07:37:44;100219.69;;;7.77;89.53
76448;BME280;65284;51.040;13.722;2024-02-21T07:40:14;100218.31;;;7.72;89.42
76448;BME280;65284;51.040;13.722;2024-02-21T07:42:41;100220.53;;;7.67;88.65
76448;BME280;65284;51.040;13.722;2024-02-21T07:45:10;100202.44;;;7.72;89.31
76448;BME280;65284;51.040;13.722;2024-02-21T07:47:37;100201.75;;;7.80;89.36
76448;BME280;65284;51.040;13.722;2024-02-21T07:50:03;100204.94;;;7.84;88.53
76448;BME280;65284;51.040;13.722;2024-02-21T07:52:31;100189.22;;;7.82;88.37
76448;BME280;65284;51.040;13.722;2024-02-21T07:54:57;100199.81;;;7.92;87.93
76448;BME280;65284;51.040;13.722;2024-02-21T07:57:24;100192.44;;;7.86;87.61
76448;BME280;65284;51.040;13.722;2024-02-21T07:59:50;100197.44;;;7.89;87.89
76448;BME280;65284;51.040;13.722;2024-02-21T08:02:17;100189.94;;;7.94;87.69
76448;BME280;65284;51.040;13.722;2024-02-21T08:04:44;100195.34;;;7.92;87.82
76448;BME280;65284;51.040;13.722;2024-02-21T08:07:10;100199.41;;;7.87;86.70
76448;BME280;65284;51.040;13.722;2024-02-21T08:09:39;100197.44;;;7.89;86.76
76448;BME280;65284;51.040;13.722;2024-02-21T08:12:06;100191.59;;;7.85;87.78
76448;BME280;65284;51.040;13.722;2024-02-21T08:14:33;100200.78;;;7.91;87.04
76448;BME280;65284;51.040;13.722;2024-02-21T08:17:02;100198.97;;;8.01;86.57
76448;BME280;65284;51.040;13.722;2024-02-21T08:19:30;100204.69;;;8.06;85.97
76448;BME280;65284;51.040;13.722;2024-02-21T08:21:57;100211.34;;;8.10;86.33
76448;BME280;65284;51.040;13.722;2024-02-21T08:24:23;100205.38;;;8.08;86.16
76448;BME280;65284;51.040;13.722;2024-02-21T08:26:50;100211.63;;;8.07;86.55
76448;BME280;65284;51.040;13.722;2024-02-21T08:29:16;100214.97;;;8.09;85.98
76448;BME280;65284;51.040;13.722;2024-02-21T08:31:43;100202.88;;;8.16;85.61
76448;BME280;65284;51.040;13.722;2024-02-21T08:34:09;100194.66;;;8.19;85.71
76448;BME280;65284;51.040;13.722;2024-02-21T08:36:36;100188.53;;;8.29;84.88
76448;BME280;65284;51.040;13.722;2024-02-21T08:39:03;100175.97;;;8.31;84.68
76448;BME280;65284;51.040;13.722;2024-02-21T08:41:32;100172.63;;;8.29;85.00
76448;BME280;65284;51.040;13.722;2024-02-21T08:44:17;100187.81;;;8.27;85.07
76448;BME280;65284;51.040;13.722;2024-02-21T08:46:43;100185.75;;;8.20;85.38
76448;BME280;65284;51.040;13.722;2024-02-21T08:49:10;100195.88;;;8.25;84.66
76448;BME280;65284;51.040;13.722;2024-02-21T08:51:37;100187.69;;;8.18;85.03
76448;BME280;65284;51.040;13.722;2024-02-21T08:54:03;100176.72;;;8.13;84.82
76448;BME280;65284;51.040;13.722;2024-02-21T08:56:32;100174.88;;;8.24;84.59
76448;BME280;65284;51.040;13.722;2024-02-21T08:58:59;100185.75;;;8.20;84.56
76448;BME280;65284;51.040;13.722;2024-02-21T09:01:26;100183.50;;;8.26;84.72
76448;BME280;65284;51.040;13.722;2024-02-21T09:03:53;100171.22;;;8.25;84.27
76448;BME280;65284;51.040;13.722;2024-02-21T09:06:20;100167.34;;;8.29;84.17
76448;BME280;65284;51.040;13.722;2024-02-21T09:08:47;100178.88;;;8.28;83.98
76448;BME280;65284;51.040;13.722;2024-02-21T09:11:13;100174.31;;;8.30;84.40
76448;BME280;65284;51.040;13.722;2024-02-21T09:13:40;100188.53;;;8.29;84.57
76448;BME280;65284;51.040;13.722;2024-02-21T09:16:06;100178.22;;;8.26;85.07
76448;BME280;65284;51.040;13.722;2024-02-21T09:18:33;100174.03;;;8.23;84.95
76448;BME280;65284;51.040;13.722;2024-02-21T09:20:59;100173.59;;;8.28;84.97
76448;BME280;65284;51.040;13.722;2024-02-21T09:23:26;100176.13;;;8.29;85.28
76448;BME280;65284;51.040;13.722;2024-02-21T09:25:53;100177.66;;;8.32;85.18
76448;BME280;65284;51.040;13.722;2024-02-21T09:28:20;100191.00;;;8.40;84.85
76448;BME280;65284;51.040;13.722;2024-02-21T09:30:47;100184.59;;;8.33;84.45
76448;BME280;65284;51.040;13.722;2024-02-21T09:33:13;100196.16;;;8.32;84.78
76448;BME280;65284;51.040;13.722;2024-02-21T09:35:55;100193.53;;;8.32;84.38
76448;BME280;65284;51.040;13.722;2024-02-21T09:38:22;100196.59;;;8.27;84.84
76448;BME280;65284;51.040;13.722;2024-02-21T09:40:59;100191.84;;;8.31;85.02
76448;BME280;65284;51.040;13.722;2024-02-21T09:43:26;100212.19;;;8.30;85.10
76448;BME280;65284;51.040;13.722;2024-02-21T09:45:55;100209.97;;;8.26;84.97
76448;BME280;65284;51.040;13.722;2024-02-21T09:48:33;100204.69;;;8.26;84.71
76448;BME280;65284;51.040;13.722;2024-02-21T09:51:02;100199.66;;;8.23;84.53
76448;BME280;65284;51.040;13.722;2024-02-21T09:53:30;100209.97;;;8.26;84.77
76448;BME280;65284;51.040;13.722;2024-02-21T09:55:57;100198.69;;;8.24;84.59
76448;BME280;65284;51.040;13.722;2024-02-21T09:58:25;100191.72;;;8.23;85.26
76448;BME280;65284;51.040;13.722;2024-02-21T10:00:53;100187.28;;;8.23;85.27
76448;BME280;65284;51.040;13.722;2024-02-21T10:03:20;100193.22;;;8.25;85.05
76448;BME280;65284;51.040;13.722;2024-02-21T10:05:48;100187.69;;;8.28;85.06
76448;BME280;65284;51.040;13.722;2024-02-21T10:08:16;100183.50;;;8.26;85.35
76448;BME280;65284;51.040;13.722;2024-02-21T10:10:44;100176.94;;;8.30;85.05
76448;BME280;65284;51.040;13.722;2024-02-21T10:13:23;100180.97;;;8.34;84.94
76448;BME280;65284;51.040;13.722;2024-02-21T10:16:01;100183.47;;;8.35;84.95
76448;BME280;65284;51.040;13.722;2024-02-21T10:18:28;100187.94;;;8.35;85.33
76448;BME280;65284;51.040;13.722;2024-02-21T10:21:05;100181.53;;;8.37;85.15
76448;BME280;65284;51.040;13.722;2024-02-21T10:26:12;100178.75;;;8.39;84.78
76448;BME280;65284;51.040;13.722;2024-02-21T10:28:39;100183.19;;;8.48;84.43
76448;BME280;65284;51.040;13.722;2024-02-21T10:31:11;100172.63;;;8.48;84.78
76448;BME280;65284;51.040;13.722;2024-02-21T10:33:53;100189.91;;;8.42;83.65
76448;BME280;65284;51.040;13.722;2024-02-21T10:36:20;100174.00;;;8.52;82.94
76448;BME280;65284;51.040;13.722;2024-02-21T10:38:46;100184.03;;;8.49;82.81
76448;BME280;65284;51.040;13.722;2024-02-21T10:41:14;100185.19;;;8.46;83.20
76448;BME280;65284;51.040;13.722;2024-02-21T10:43:41;100168.59;;;8.44;83.02
76448;BME280;65284;51.040;13.722;2024-02-21T10:46:08;100170.41;;;8.43;83.21
76448;BME280;65284;51.040;13.722;2024-02-21T10:48:42;100159.38;;;8.48;82.96
76448;BME280;65284;51.040;13.722;2024-02-21T10:51:17;100162.72;;;8.50;82.55
76448;BME280;65284;51.040;13.722;2024-02-21T10:54:06;100146.16;;;8.48;82.25
76448;BME280;65284;51.040;13.722;2024-02-21T11:00:19;100157.44;;;8.50;82.91
76448;BME280;65284;51.040;13.722;2024-02-21T11:02:46;100154.09;;;8.48;82.71
76448;BME280;65284;51.040;13.722;2024-02-21T11:05:14;100141.44;;;8.42;82.88
76448;BME280;65284;51.040;13.722;2024-02-21T11:07:41;100149.78;;;8.47;83.19
76448;BME280;65284;51.040;13.722;2024-02-21T11:10:23;100134.31;;;8.52;83.02
76448;BME280;65284;51.040;13.722;2024-02-21T11:13:07;100146.16;;;8.48;83.63
76448;BME280;65284;51.040;13.722;2024-02-21T11:15:34;100140.56;;;8.51;83.88
76448;BME280;65284;51.040;13.722;2024-02-21T11:18:00;100125.66;;;8.50;83.34
76448;BME280;65284;51.040;13.722;2024-02-21T11:20:37;100116.59;;;8.53;83.33
76448;BME280;65284;51.040;13.722;2024-02-21T11:23:04;100131.38;;;8.55;83.27
76448;BME280;65284;51.040;13.722;2024-02-21T11:25:31;100124.09;;;8.57;83.27
76448;BME280;65284;51.040;13.722;2024-02-21T11:28:03;100112.44;;;8.50;83.90
76448;BME280;65284;51.040;13.722;2024-02-21T11:30:30;100116.59;;;8.53;83.71
76448;BME280;65284;51.040;13.722;2024-02-21T11:33:02;100106.03;;;8.53;83.37
76448;BME280;65284;51.040;13.722;2024-02-21T11:35:36;100094.03;;;8.58;83.36
76448;BME280;65284;51.040;13.722;2024-02-21T11:38:13;100091.75;;;8.63;83.78
76448;BME280;65284;51.040;13.722;2024-02-21T11:40:45;100080.31;;;8.73;83.48
76448;BME280;65284;51.040;13.722;2024-02-21T11:43:12;100077.50;;;8.74;83.04
76448;BME280;65284;51.040;13.722;2024-02-21T11:45:38;100081.66;;;8.77;83.09
76448;BME280;65284;51.040;13.722;2024-02-21T11:48:06;100078.03;;;8.78;83.10
76448;BME280;65284;51.040;13.722;2024-02-21T11:50:36;100079.94;;;8.85;83.13
76448;BME280;65284;51.040;13.722;2024-02-21T11:53:03;100059.59;;;8.86;82.54
76448;BME280;65284;51.040;13.722;2024-02-21T11:55:30;100064.41;;;8.73;83.35
76448;BME280;65284;51.040;13.722;2024-02-21T11:57:56;100069.13;;;8.79;83.64
76448;BME280;65284;51.040;13.722;2024-02-21T12:00:23;100060.19;;;8.80;83.45
76448;BME280;65284;51.040;13.722;2024-02-21T12:02:53;100044.28;;;8.80;83.57
76448;BME280;65284;51.040;13.722;2024-02-21T12:05:19;100046.78;;;8.81;83.06
76448;BME280;65284;51.040;13.722;2024-02-21T12:07:46;100029.22;;;8.80;82.81
76448;BME280;65284;51.040;13.722;2024-02-21T12:10:13;100032.41;;;8.84;83.63
76448;BME280;65284;51.040;13.722;2024-02-21T12:12:40;100026.38;;;8.92;83.32
76448;BME280;65284;51.040;13.722;2024-02-21T12:15:07;100011.53;;;8.99;82.70
76448;BME280;65284;51.040;13.722;2024-02-21T12:17:37;100023.00;;;8.99;82.21
76448;BME280;65284;51.040;13.722;2024-02-21T12:20:05;100006.84;;;8.93;82.51
76448;BME280;65284;51.040;13.722;2024-02-21T12:22:32;100017.75;;;8.89;82.54
76448;BME280;65284;51.040;13.722;2024-02-21T12:24:58;99997.53;;;8.88;82.82
76448;BME280;65284;51.040;13.722;2024-02-21T12:27:25;99985.34;;;8.96;82.96
76448;BME280;65284;51.040;13.722;2024-02-21T12:29:52;99984.69;;;9.11;82.00
76448;BME280;65284;51.040;13.722;2024-02-21T12:32:19;99976.78;;;9.20;81.67
76448;BME280;65284;51.040;13.722;2024-02-21T12:34:45;99965.88;;;9.23;81.29
76448;BME280;65284;51.040;13.722;2024-02-21T12:37:21;99955.00;;;9.26;81.28
76448;BME280;65284;51.040;13.722;2024-02-21T12:39:48;99952.03;;;9.29;81.51
76448;BME280;65284;51.040;13.722;2024-02-21T12:42:14;99943.00;;;9.40;80.82
76448;BME280;65284;51.040;13.722;2024-02-21T12:44:41;99942.53;;;9.44;80.46
76448;BME280;65284;51.040;13.722;2024-02-21T12:47:08;99944.50;;;9.42;80.78
76448;BME280;65284;51.040;13.722;2024-02-21T12:49:35;99932.25;;;9.41;80.10
76448;BME280;65284;51.040;13.722;2024-02-21T12:52:02;99940.13;;;9.33;80.58
76448;BME280;65284;51.040;13.722;2024-02-21T12:54:29;99936.50;;;9.34;80.64
76448;BME280;65284;51.040;13.722;2024-02-21T12:56:57;99927.41;;;9.37;80.70
76448;BME280;65284;51.040;13.722;2024-02-21T12:59:24;99917.81;;;9.36;80.68